Time;durP1;ratioP1;P1;durP2;ratioP2;P2;SDS_P1;SDS_P2;PMS_P1;PMS_P2;Temp;Humidity;BMP_temperature;BMP_pressure;BME280_temperature;BME280_humidity;BME280_pressure;Samples;Min_cycle;Max_cycle;Signal;HPM_P1;HPM_P2
2022/05/23 00:00:35;;;;;;;1.27;1.17;;;;;;;17.35;59.37;100291.44;5054838;27;102368;-65
2022/05/23 00:03:01;;;;;;;1.10;0.90;;;;;;;17.36;59.44;100298.53;5053712;27;103925;-67
2022/05/23 00:05:30;;;;;;;2.50;1.05;;;;;;;17.35;59.23;100294.19;5054291;27;102400;-65
2022/05/23 00:07:59;;;;;;;1.65;0.80;;;;;;;17.35;59.71;100293.38;5052439;27;102120;-65
2022/05/23 00:10:26;;;;;;;1.20;1.10;;;;;;;17.35;59.47;100296.13;5053978;27;102370;-65
2022/05/23 00:12:53;;;;;;;0.85;0.85;;;;;;;17.34;59.62;100292.56;5053139;27;103918;-65
2022/05/23 00:15:25;;;;;;;2.05;0.95;;;;;;;17.34;59.16;100287.06;5053863;27;102318;-65
2022/05/23 00:17:52;;;;;;;2.45;1.10;;;;;;;17.34;59.62;100292.56;5051301;27;102466;-65
2022/05/23 00:20:22;;;;;;;1.48;0.88;;;;;;;17.35;59.45;100287.88;5054225;27;102180;-65
2022/05/23 00:22:49;;;;;;;0.93;0.90;;;;;;;17.35;59.45;100293.38;5052725;27;103980;-64
2022/05/23 00:25:17;;;;;;;1.33;1.15;;;;;;;17.36;58.98;100300.50;5053154;27;102467;-65
2022/05/23 00:27:46;;;;;;;0.77;0.77;;;;;;;17.35;59.19;100299.69;5052266;27;102269;-65
2022/05/23 00:30:17;;;;;;;1.15;1.00;;;;;;;17.35;59.48;100309.88;5051300;27;102032;-65
2022/05/23 00:35:30;;;;;;;1.20;1.10;;;;;;;17.34;59.62;100298.06;5053445;27;102260;-65
2022/05/23 00:37:58;;;;;;;1.00;0.90;;;;;;;17.35;59.64;100302.44;5052620;27;102053;-65
2022/05/23 00:40:37;;;;;;;1.95;1.08;;;;;;;17.34;59.43;100303.56;5054286;27;102571;-65
2022/05/23 00:43:23;;;;;;;0.95;0.93;;;;;;;17.34;59.23;100303.56;5053019;27;103818;-64
2022/05/23 00:45:52;;;;;;;1.13;0.90;;;;;;;17.33;59.56;100301.94;5052733;27;102220;-65
2022/05/23 00:48:21;;;;;;;1.63;1.00;;;;;;;17.34;59.76;100298.06;5048224;27;102239;-66
2022/05/23 00:50:52;;;;;;;1.08;0.90;;;;;;;17.35;59.78;100299.69;5053609;27;102105;-64
2022/05/23 00:53:24;;;;;;;0.98;0.98;;;;;;;17.34;59.39;100303.56;5031045;27;104141;-64
2022/05/23 00:55:51;;;;;;;1.25;0.82;;;;;;;17.32;59.35;100305.84;5032729;28;102054;-65
2022/05/23 00:58:24;;;;;;;1.13;0.93;;;;;;;17.34;59.75;100309.06;5046635;27;102586;-65
2022/05/23 01:00:51;;;;;;;0.80;0.80;;;;;;;17.31;59.43;100309.72;5053925;27;102504;-65
2022/05/23 01:03:19;;;;;;;0.90;0.85;;;;;;;17.34;59.63;100316.50;5052401;27;103765;-65
2022/05/23 01:05:47;;;;;;;1.05;0.80;;;;;;;17.33;59.70;100318.44;5052569;27;102736;-65
2022/05/23 01:08:15;;;;;;;0.93;0.80;;;;;;;17.32;59.80;100311.34;5051064;27;102471;-65
2022/05/23 01:10:43;;;;;;;1.35;1.17;;;;;;;17.34;59.79;100309.06;5053697;27;102409;-65
2022/05/23 01:13:09;;;;;;;1.25;0.90;;;;;;;17.34;59.43;100308.25;5051713;27;103865;-64
2022/05/23 01:15:37;;;;;;;0.98;0.80;;;;;;;17.32;59.50;100305.03;5052622;27;101969;-65
2022/05/23 01:18:04;;;;;;;1.20;1.10;;;;;;;17.32;59.67;100314.09;5050961;27;101917;-65
2022/05/23 01:20:31;;;;;;;1.20;0.98;;;;;;;17.32;59.81;100307.78;5053409;27;102642;-65
2022/05/23 01:23:11;;;;;;;1.08;0.95;;;;;;;17.31;59.39;100304.22;5051400;27;103837;-65
2022/05/23 01:25:41;;;;;;;1.10;1.00;;;;;;;17.33;59.57;100295.63;5043772;27;101944;-65
2022/05/23 01:28:11;;;;;;;0.98;0.90;;;;;;;17.31;59.39;100301.47;5050725;27;102052;-65
2022/05/23 01:30:40;;;;;;;1.92;1.10;;;;;;;17.32;59.63;100294.84;5052970;27;102410;-65
2022/05/23 01:33:07;;;;;;;;;;;;;;;17.30;59.61;100295.16;5052290;27;103732;-65
2022/05/23 01:35:35;;;;;;;1.00;0.90;;;;;;;17.31;59.35;100293.22;5051052;27;102324;-65
2022/05/23 01:38:01;;;;;;;1.25;0.80;;;;;;;17.30;59.71;100291.59;5052559;27;102157;-65
2022/05/23 01:40:28;;;;;;;1.63;1.08;;;;;;;17.29;59.22;100290.78;5051925;27;102065;-64
2022/05/23 01:42:56;;;;;;;1.13;1.00;;;;;;;17.29;59.49;100296.28;5051073;27;103923;-64
2022/05/23 01:45:25;;;;;;;1.30;1.15;;;;;;;17.28;59.39;100296.63;5051665;27;102436;-65
2022/05/23 01:47:53;;;;;;;1.10;0.90;;;;;;;17.27;59.58;100300.50;5052152;27;103175;-65
2022/05/23 01:50:23;;;;;;;1.92;0.98;;;;;;;17.28;59.73;100294.69;5050945;27;102125;-65
2022/05/23 01:52:49;;;;;;;1.20;1.10;;;;;;;17.26;60.06;100301.63;5051825;27;103833;-65
2022/05/23 01:55:16;;;;;;;2.45;1.05;;;;;;;17.28;59.97;100300.19;5052172;27;102133;-65
2022/05/23 01:57:43;;;;;;;1.42;0.80;;;;;;;17.27;59.81;100292.25;5052256;27;102325;-65
2022/05/23 02:03:02;;;;;;;2.45;0.90;;;;;;;17.28;59.82;100307.63;5033524;27;103887;-65
2022/05/23 02:05:30;;;;;;;2.72;0.80;;;;;;;17.27;59.84;100303.25;5051253;27;102408;-65
2022/05/23 02:07:56;;;;;;;1.70;0.80;;;;;;;17.28;59.39;100313.13;5051658;27;102391;-65
2022/05/23 02:10:23;;;;;;;3.13;1.25;;;;;;;17.27;59.46;100314.25;5051110;27;102364;-65
2022/05/23 02:12:50;;;;;;;1.40;1.00;;;;;;;17.27;59.45;100308.75;5050371;27;103855;-65
2022/05/23 02:15:19;;;;;;;1.38;1.10;;;;;;;17.26;59.63;100318.94;5052072;27;102449;-65
2022/05/23 02:17:47;;;;;;;0.90;0.90;;;;;;;17.26;59.81;100313.44;5051664;27;101975;-65
2022/05/23 02:20:14;;;;;;;0.95;0.80;;;;;;;17.26;59.71;100313.44;5051781;27;102500;-64
2022/05/23 02:22:41;;;;;;;1.25;1.13;;;;;;;17.26;59.62;100307.13;5050419;27;103909;-64
2022/05/23 02:25:09;;;;;;;1.10;1.00;;;;;;;17.27;59.97;100314.25;5052009;27;102200;-65
2022/05/23 02:27:37;;;;;;;0.90;0.90;;;;;;;17.28;59.53;100315.88;5051537;27;101873;-65
2022/05/23 02:30:05;;;;;;;0.93;0.93;;;;;;;17.26;59.64;100304.38;5050784;27;102193;-65
2022/05/23 02:32:33;;;;;;;1.48;1.20;;;;;;;17.25;60.22;100309.09;5051334;27;103845;-64
2022/05/23 02:35:07;;;;;;;0.90;0.90;;;;;;;17.24;60.16;100312.16;5051093;27;101880;-65
2022/05/23 02:37:33;;;;;;;1.10;1.00;;;;;;;17.25;59.73;100311.84;5051443;27;102158;-65
2022/05/23 02:40:00;;;;;;;1.30;1.20;;;;;;;17.25;60.14;100317.34;5051325;27;102546;-65
2022/05/23 02:42:27;;;;;;;1.10;1.00;;;;;;;17.25;59.93;100320.09;5051331;27;103916;-65
2022/05/23 02:44:55;;;;;;;0.90;0.90;;;;;;;17.25;59.81;100311.84;5051972;27;102422;-65
2022/05/23 02:47:21;;;;;;;1.15;0.95;;;;;;;17.27;59.88;100317.00;5051278;27;101866;-64
2022/05/23 02:49:49;;;;;;;1.33;1.20;;;;;;;17.26;59.89;100318.13;5049847;27;102308;-65
2022/05/23 02:52:18;;;;;;;3.08;1.20;;;;;;;17.26;59.95;100312.63;5051011;27;104038;-65
2022/05/23 02:54:45;;;;;;;2.35;0.90;;;;;;;17.27;59.89;100319.75;5051767;27;102387;-65
2022/05/23 02:57:12;;;;;;;0.88;0.80;;;;;;;17.26;59.79;100312.63;5049205;27;102408;-65
2022/05/23 02:59:38;;;;;;;1.15;1.00;;;;;;;17.26;59.47;100313.44;5052564;27;102659;-64
2022/05/23 03:04:53;;;;;;;1.10;1.00;;;;;;;17.27;59.74;100315.06;5051470;27;102347;-65
2022/05/23 03:07:19;;;;;;;1.20;1.00;;;;;;;17.27;59.77;100323.31;5050969;27;102263;-65
2022/05/23 03:09:47;;;;;;;1.10;1.00;;;;;;;17.27;59.96;100314.25;5051223;27;102288;-64
2022/05/23 03:12:14;;;;;;;1.48;1.08;;;;;;;17.28;59.13;100321.38;5049827;27;103877;-65
2022/05/23 03:14:40;;;;;;;1.08;0.98;;;;;;;17.29;59.16;100318.28;5050419;27;102067;-65
2022/05/23 03:17:08;;;;;;;1.35;1.13;;;;;;;17.29;59.60;100314.75;5053013;27;102429;-65
2022/05/23 03:19:36;;;;;;;0.90;0.90;;;;;;;17.30;59.06;100314.41;5054901;27;102294;-65
2022/05/23 03:27:36;;;;;;;2.50;1.20;;;;;;;17.30;59.65;100324.59;5053937;27;102161;-65
2022/05/23 03:30:04;;;;;;;1.00;0.90;;;;;;;17.29;59.11;100320.25;5049297;27;102199;-65
2022/05/23 03:32:30;;;;;;;1.27;0.90;;;;;;;17.30;59.84;100319.91;5053909;27;103986;-64
2022/05/23 03:34:58;;;;;;;1.83;1.10;;;;;;;17.30;59.98;100316.34;5054719;27;102417;-65
2022/05/23 03:37:26;;;;;;;0.88;0.70;;;;;;;17.32;60.36;100316.84;5053883;27;102173;-65
2022/05/23 03:39:53;;;;;;;1.80;0.85;;;;;;;17.34;59.93;100319.25;5054308;27;102607;-65
2022/05/23 03:42:19;;;;;;;1.33;0.95;;;;;;;17.32;59.76;100314.09;5051755;27;103315;-64
2022/05/23 03:44:46;;;;;;;1.00;0.90;;;;;;;17.33;60.21;100318.44;5055077;27;102092;-64
2022/05/23 03:47:12;;;;;;;1.00;0.90;;;;;;;17.34;59.86;100327.50;5053440;27;101911;-65
2022/05/23 03:49:39;;;;;;;1.38;0.90;;;;;;;17.33;60.27;100328.66;5054222;27;102310;-65
2022/05/23 03:52:06;;;;;;;1.92;1.10;;;;;;;17.34;60.43;100324.75;5052428;27;103923;-64
2022/05/23 03:54:33;;;;;;;1.25;1.15;;;;;;;17.32;60.29;100322.34;5053748;27;102113;-65
2022/05/23 03:57:02;;;;;;;1.00;1.00;;;;;;;17.34;60.18;100319.25;5053872;27;102282;-65
2022/05/23 03:59:30;;;;;;;1.80;1.00;;;;;;;17.34;60.53;100324.75;5054339;27;102317;-65
2022/05/23 04:01:57;;;;;;;3.45;0.90;;;;;;;17.33;60.79;100323.16;5053147;27;103814;-65
2022/05/23 04:04:24;;;;;;;1.25;1.15;;;;;;;17.34;60.53;100313.75;5054067;27;102453;-65
2022/05/23 04:06:51;;;;;;;0.95;0.80;;;;;;;17.34;60.91;100320.06;5053171;27;102361;-65
2022/05/23 04:09:17;;;;;;;1.05;1.00;;;;;;;17.33;60.58;100318.44;5054561;27;102829;-64
2022/05/23 04:11:46;;;;;;;0.95;0.90;;;;;;;17.33;60.50;100320.41;5051657;27;104142;-65
2022/05/23 04:14:12;;;;;;;0.93;0.82;;;;;;;17.32;61.13;100316.03;5054120;27;102320;-65
2022/05/23 04:16:41;;;;;;;0.90;0.90;;;;;;;17.33;60.88;100321.19;5053274;27;102470;-65
2022/05/23 04:19:08;;;;;;;2.28;1.00;;;;;;;17.32;62.00;100325.09;5054532;27;102303;-65
2022/05/23 04:21:34;;;;;;;2.25;1.23;;;;;;;17.32;61.20;100321.53;5051749;27;103989;-65
2022/05/23 04:24:01;;;;;;;1.30;1.20;;;;;;;17.33;61.58;100321.19;5053061;27;102268;-65
2022/05/23 04:26:28;;;;;;;1.48;1.00;;;;;;;17.33;61.74;100323.94;5053022;27;101879;-65
2022/05/23 04:28:56;;;;;;;1.58;1.00;;;;;;;17.32;61.65;100333.34;5054457;27;101902;-65
2022/05/23 04:31:22;;;;;;;1.45;1.35;;;;;;;17.34;61.74;100333.00;5051310;27;104149;-66
2022/05/23 04:36:34;;;;;;;1.20;1.10;;;;;;;17.35;61.45;100331.88;5053107;27;102331;-65
2022/05/23 04:39:02;;;;;;;1.13;1.02;;;;;;;17.33;61.25;100328.66;5053742;27;102295;-65
2022/05/23 04:41:30;;;;;;;1.67;1.10;;;;;;;17.32;61.59;100327.84;5051379;27;103912;-65
2022/05/23 04:43:58;;;;;;;1.02;0.80;;;;;;;17.34;61.29;100333.00;5053573;27;102222;-64
2022/05/23 04:46:25;;;;;;;1.75;1.23;;;;;;;17.32;61.82;100333.34;5051378;27;102064;-65
2022/05/23 04:51:39;;;;;;;2.03;1.00;;;;;;;17.32;61.97;100338.84;5051416;27;104109;-65
2022/05/23 04:54:06;;;;;;;1.58;1.08;;;;;;;17.32;61.58;100338.84;5053055;27;102443;-65
2022/05/23 04:56:33;;;;;;;1.60;1.05;;;;;;;17.33;61.54;100328.66;5051842;27;102486;-65
2022/05/23 04:59:01;;;;;;;1.50;1.40;;;;;;;17.33;61.50;100334.94;5052284;27;102718;-64
2022/05/23 05:01:29;;;;;;;2.33;1.10;;;;;;;17.34;61.98;100339.31;5049585;27;103861;-64
2022/05/23 05:03:57;;;;;;;1.85;1.30;;;;;;;17.37;61.66;100348.84;5053147;27;102457;-65
2022/05/23 05:06:24;;;;;;;1.75;1.35;;;;;;;17.35;61.99;100338.19;5051727;27;102382;-65
2022/05/23 05:08:51;;;;;;;1.60;1.30;;;;;;;17.35;62.25;100338.19;5053796;27;102200;-65
2022/05/23 05:11:19;;;;;;;;;;;;;;;17.35;61.99;100332.69;5051457;27;104472;-66
2022/05/23 05:13:46;;;;;;;2.08;1.15;;;;;;;17.36;61.97;100341.75;5052570;27;101950;-65
2022/05/23 05:16:19;;;;;;;2.55;1.15;;;;;;;17.36;61.57;100336.25;5051443;27;102468;-65
2022/05/23 05:18:45;;;;;;;1.52;1.25;;;;;;;17.34;62.39;100336.56;5052087;27;102463;-65
2022/05/23 05:21:11;;;;;;;2.13;1.45;;;;;;;17.35;62.30;100338.19;5048917;27;104443;-65
2022/05/23 05:23:39;;;;;;;2.35;1.45;;;;;;;17.35;62.00;100343.69;5047938;27;103439;-64
2022/05/23 05:26:06;;;;;;;1.50;1.08;;;;;;;17.34;61.80;100338.50;5048797;27;102294;-65
2022/05/23 05:28:33;;;;;;;1.30;1.13;;;;;;;17.33;61.77;100337.69;5048039;27;102368;-64
2022/05/23 05:31:04;;;;;;;1.35;1.25;;;;;;;17.31;62.06;100331.72;5051203;27;103833;-65
2022/05/23 05:33:36;;;;;;;1.30;1.13;;;;;;;17.32;62.45;100335.28;5049246;27;102435;-65
2022/05/23 05:36:06;;;;;;;1.23;1.10;;;;;;;17.32;62.08;100338.03;5044127;27;101982;-64
2022/05/23 05:38:37;;;;;;;1.40;1.20;;;;;;;17.32;62.30;100335.28;5046795;27;102043;-64
2022/05/23 05:41:08;;;;;;;1.60;1.42;;;;;;;17.33;61.75;100339.66;5043888;27;103920;-65
2022/05/23 05:43:40;;;;;;;1.67;1.20;;;;;;;17.34;61.85;100335.75;5044599;27;102249;-65
2022/05/23 05:46:13;;;;;;;1.70;1.25;;;;;;;17.31;62.08;100334.47;5041989;27;102289;-64
2022/05/23 05:48:42;;;;;;;2.30;1.23;;;;;;;17.32;61.86;100341.59;5046736;27;102672;-65
2022/05/23 05:51:16;;;;;;;90.88;7.28;;;;;;;17.33;61.55;100342.41;5047874;27;104296;-65
2022/05/23 05:53:44;;;;;;;5.50;1.40;;;;;;;17.32;61.96;100338.84;5052181;27;101834;-64
2022/05/23 05:56:11;;;;;;;12.63;2.72;;;;;;;17.31;62.08;100339.97;5051539;27;102412;-64
2022/05/23 05:58:39;;;;;;;10.98;1.83;;;;;;;17.32;61.85;100344.34;5033033;27;102271;-65
2022/05/23 06:01:05;;;;;;;7.05;1.80;;;;;;;17.31;61.66;100339.97;5030891;27;103955;-64
2022/05/23 06:03:34;;;;;;;9.15;1.60;;;;;;;17.31;61.78;100342.75;5031746;27;102478;-65
2022/05/23 06:11:35;;;;;;;8.40;1.40;;;;;;;17.31;61.85;100339.97;5044049;27;103852;-65
2022/05/23 06:14:03;;;;;;;3.50;1.50;;;;;;;17.30;61.92;100347.41;5051864;27;102011;-64
2022/05/23 06:16:32;;;;;;;24.63;3.35;;;;;;;17.30;61.98;100341.09;5051327;27;102302;-65
2022/05/23 06:18:59;;;;;;;1.80;1.50;;;;;;;17.30;61.69;100343.84;5053153;27;102632;-65
2022/05/23 06:21:28;;;;;;;4.53;1.38;;;;;;;17.30;61.96;100338.34;5047364;27;104061;-65
2022/05/23 06:23:55;;;;;;;5.00;1.30;;;;;;;17.30;61.78;100343.84;5047292;27;102010;-64
2022/05/23 06:26:23;;;;;;;2.33;0.95;;;;;;;17.29;61.98;100339.50;5033876;27;102438;-64
2022/05/23 06:28:50;;;;;;;5.00;1.40;;;;;;;17.29;61.91;100337.53;5037700;27;102204;-64
2022/05/23 06:31:17;;;;;;;2.22;1.25;;;;;;;17.29;61.88;100340.28;5048330;27;104066;-64
2022/05/23 06:33:47;;;;;;;2.50;1.50;;;;;;;17.29;61.86;100334.00;5035051;27;102194;-64
2022/05/23 06:36:16;;;;;;;1.48;1.08;;;;;;;17.29;61.87;100334.00;5048192;27;102528;-65
2022/05/23 06:38:44;;;;;;;4.47;1.40;;;;;;;17.28;61.97;100332.38;5050691;27;104013;-65
2022/05/23 06:41:12;;;;;;;2.05;1.60;;;;;;;17.28;61.79;100326.88;5050905;27;103921;-64
2022/05/23 06:43:41;;;;;;;3.42;1.48;;;;;;;17.31;62.10;100331.72;5048391;27;102051;-65
2022/05/23 06:46:09;;;;;;;2.45;1.30;;;;;;;17.32;62.46;100330.59;5047248;27;102574;-64
2022/05/23 06:48:36;;;;;;;2.58;1.13;;;;;;;17.30;62.50;100325.41;5036657;27;102416;-64
2022/05/23 06:51:04;;;;;;;5.35;1.67;;;;;;;17.32;61.99;100327.03;5037863;27;103979;-64
2022/05/23 06:53:31;;;;;;;1.75;1.30;;;;;;;17.32;61.97;100322.34;5038417;27;102765;-65
2022/05/23 06:55:59;;;;;;;2.67;1.50;;;;;;;17.33;62.24;100325.91;5048770;27;102022;-64
2022/05/23 06:58:26;;;;;;;2.70;1.30;;;;;;;17.33;62.27;100317.66;5055841;27;102562;-65
2022/05/23 07:00:53;;;;;;;2.05;1.40;;;;;;;17.34;61.98;100320.06;5044019;27;104023;-65
2022/05/23 07:03:21;;;;;;;1.67;1.45;;;;;;;17.34;62.01;100314.56;5036944;27;102246;-64
2022/05/23 07:14:07;;;;;;;2.47;1.85;;;;;;;17.33;61.16;100320.41;5051006;27;102519;-65
2022/05/23 07:16:34;;;;;;;3.58;1.98;;;;;;;17.35;61.38;100326.38;5051961;27;103592;-65
2022/05/23 07:19:02;;;;;;;2.50;1.60;;;;;;;17.34;62.05;100322.81;5053083;27;102189;-64
2022/05/23 07:21:31;;;;;;;4.45;1.60;;;;;;;17.36;62.28;100317.00;5046631;27;104162;-64
2022/05/23 07:23:59;;;;;;;1.83;1.50;;;;;;;17.36;61.91;100317.00;5050301;27;102369;-64
2022/05/23 07:26:27;;;;;;;2.97;1.60;;;;;;;17.35;62.05;100315.38;5051918;27;102203;-64
2022/05/23 07:28:57;;;;;;;3.50;1.40;;;;;;;17.36;62.21;100317.00;5055127;27;102206;-65
2022/05/23 07:31:24;;;;;;;2.28;1.40;;;;;;;17.35;61.97;100318.94;5050758;27;103898;-64
2022/05/23 07:33:51;;;;;;;1.80;1.48;;;;;;;17.37;62.21;100315.84;5054908;27;102360;-65
2022/05/23 07:36:19;;;;;;;1.90;1.70;;;;;;;17.38;61.82;100321.03;5049886;27;102332;-64
2022/05/23 07:38:46;;;;;;;3.28;1.98;;;;;;;17.38;62.15;100326.53;5054015;27;102286;-65
2022/05/23 07:41:13;;;;;;;3.17;1.60;;;;;;;17.38;61.66;100323.78;5049024;27;103648;-65
2022/05/23 07:43:42;;;;;;;2.75;1.90;;;;;;;17.39;62.05;100328.16;5047182;27;102428;-65
2022/05/23 07:46:12;;;;;;;2.22;1.83;;;;;;;17.39;62.62;100317.16;5052384;27;102195;-65
2022/05/23 07:48:40;;;;;;;1.85;1.30;;;;;;;17.39;62.36;100317.16;5034585;27;102664;-64
2022/05/23 07:51:09;;;;;;;1.63;1.50;;;;;;;17.40;62.57;100317.94;5040915;27;104046;-64
2022/05/23 08:01:53;;;;;;;1.83;1.58;;;;;;;17.42;62.39;100322.00;5034430;27;103769;-64
2022/05/23 08:04:20;;;;;;;1.92;1.83;;;;;;;17.46;62.08;100324.91;5043034;27;102434;-64
2022/05/23 08:06:49;;;;;;;1.85;1.70;;;;;;;17.46;62.09;100320.22;5053358;27;102323;-65
2022/05/23 08:09:17;;;;;;;1.98;1.70;;;;;;;17.47;62.49;100323.75;5053162;27;102387;-65
2022/05/23 08:11:47;;;;;;;2.17;1.50;;;;;;;17.44;62.72;100314.22;5051823;27;103990;-64
2022/05/23 08:14:15;;;;;;;2.72;1.83;;;;;;;17.41;62.83;100320.38;5054044;27;102594;-64
2022/05/23 08:16:42;;;;;;;2.20;1.93;;;;;;;17.42;62.54;100316.50;5053335;27;102202;-65
2022/05/23 08:19:09;;;;;;;2.13;1.92;;;;;;;17.43;62.61;100311.81;5047970;27;102543;-65
2022/05/23 08:21:43;;;;;;;2.15;2.00;;;;;;;17.42;62.85;100313.75;5041705;27;103897;-64
2022/05/23 08:24:10;;;;;;;2.03;1.80;;;;;;;17.44;62.52;100314.22;5053893;27;102022;-64
2022/05/23 08:26:36;;;;;;;2.65;2.03;;;;;;;17.43;62.61;100315.34;5052960;27;102361;-64
2022/05/23 08:29:03;;;;;;;2.10;1.85;;;;;;;17.43;62.65;100311.81;5053873;27;102251;-65
2022/05/23 08:31:31;;;;;;;2.55;2.20;;;;;;;17.46;62.35;100317.47;5051392;27;103894;-64
2022/05/23 08:33:57;;;;;;;2.00;1.90;;;;;;;17.43;62.43;100314.56;5053255;27;102506;-65
2022/05/23 08:36:23;;;;;;;2.33;2.13;;;;;;;17.43;62.59;100311.81;5052338;27;102043;-65
2022/05/23 08:38:50;;;;;;;3.75;2.03;;;;;;;17.41;62.50;100319.56;5051906;27;102365;-65
2022/05/23 08:41:21;;;;;;;2.10;1.88;;;;;;;17.40;62.45;100318.75;5050553;27;103986;-65
2022/05/23 08:43:51;;;;;;;2.35;2.10;;;;;;;17.40;62.02;100313.25;5043662;27;102404;-65
2022/05/23 08:46:25;;;;;;;2.13;1.80;;;;;;;17.39;61.96;100316.34;5043139;27;102239;-64
2022/05/23 08:49:05;;;;;;;2.17;1.77;;;;;;;17.39;62.13;100319.09;5048855;27;102620;-65
2022/05/23 08:51:41;;;;;;;2.30;2.10;;;;;;;17.39;62.62;100305.34;5051950;27;104070;-64
2022/05/23 08:54:21;;;;;;;2.88;2.33;;;;;;;17.38;62.29;100321.03;5052968;27;101897;-64
2022/05/23 08:56:53;;;;;;;4.68;2.63;;;;;;;17.39;62.37;100311.66;5052891;27;102110;-64
2022/05/23 08:59:27;;;;;;;2.40;2.20;;;;;;;17.39;62.32;100310.84;5050786;27;104098;-64
2022/05/23 09:01:57;;;;;;;3.22;2.00;;;;;;;17.38;62.40;100304.53;5031089;27;103712;-64
2022/05/23 09:04:33;;;;;;;2.50;2.10;;;;;;;17.39;61.95;100303.41;5045462;27;102462;-64
2022/05/23 09:07:02;;;;;;;2.80;2.10;;;;;;;17.39;62.39;100300.66;5032079;27;102564;-64
2022/05/23 09:09:36;;;;;;;2.47;2.28;;;;;;;17.39;62.57;100308.91;5049091;27;101926;-65
2022/05/23 09:12:06;;;;;;;3.15;2.50;;;;;;;17.42;62.60;100304.69;5052013;27;104033;-64
2022/05/23 09:14:33;;;;;;;3.15;2.75;;;;;;;17.41;62.70;100308.56;5049959;27;102416;-65
2022/05/23 09:17:02;;;;;;;2.83;2.03;;;;;;;17.37;62.95;100308.41;5051749;27;102311;-65
2022/05/23 09:19:37;;;;;;;3.20;2.30;;;;;;;17.40;62.73;100306.94;5053068;27;102169;-64
2022/05/23 09:22:12;;;;;;;2.22;2.05;;;;;;;17.40;62.52;100301.44;5045479;27;103675;-65
2022/05/23 09:24:43;;;;;;;2.25;2.00;;;;;;;17.37;63.09;100302.09;5040035;27;102618;-64
2022/05/23 09:27:24;;;;;;;2.65;2.45;;;;;;;17.40;62.62;100302.25;5047592;27;104165;-65
2022/05/23 09:29:52;;;;;;;2.65;2.28;;;;;;;17.41;62.44;100306.59;5051224;27;102040;-65
2022/05/23 09:32:23;;;;;;;3.40;2.33;;;;;;;17.37;62.82;100307.59;5050927;27;103684;-65
2022/05/23 09:34:54;;;;;;;3.10;2.28;;;;;;;17.39;62.10;100303.41;5052544;27;101981;-65
2022/05/23 09:37:23;;;;;;;2.55;2.13;;;;;;;17.38;62.52;100304.53;5051622;27;102427;-65
2022/05/23 09:39:54;;;;;;;;;;;;;;;17.39;62.77;100299.84;5046438;27;102755;-65
2022/05/23 09:48:32;;;;;;;2.80;2.35;;;;;;;17.37;63.08;100308.41;5012274;27;102998;-65
2022/05/23 09:51:05;;;;;;;2.90;2.50;;;;;;;17.36;63.18;100315.03;5051982;27;102702;-65
2022/05/23 09:53:46;;;;;;;2.42;2.10;;;;;;;17.36;62.67;100312.31;5043047;27;103836;-65
2022/05/23 09:56:26;;;;;;;2.38;2.17;;;;;;;17.35;62.92;100318.94;5050862;27;102307;-64
2022/05/23 09:58:53;;;;;;;2.67;2.47;;;;;;;17.35;62.50;100324.44;5051318;27;101945;-65
2022/05/23 10:01:28;;;;;;;2.25;1.90;;;;;;;17.34;62.90;100320.06;5051693;27;102303;-64
2022/05/23 10:03:57;;;;;;;2.97;2.67;;;;;;;17.34;62.98;100322.00;5050294;27;104033;-65
2022/05/23 10:06:35;;;;;;;2.55;2.35;;;;;;;17.35;63.13;100321.69;5047632;27;102208;-64
2022/05/23 10:09:30;;;;;;;3.15;2.85;;;;;;;17.36;62.61;100317.00;5045500;27;102061;-65
2022/05/23 10:11:59;;;;;;;2.78;2.28;;;;;;;17.37;62.82;100324.91;5042174;27;102206;-65
2022/05/23 10:14:41;;;;;;;2.47;2.25;;;;;;;17.38;63.03;100320.22;5037420;27;103745;-64
2022/05/23 10:17:25;;;;;;;2.63;2.15;;;;;;;17.40;62.56;100321.50;5047840;27;102128;-65
2022/05/23 10:19:54;;;;;;;2.70;1.92;;;;;;;17.40;62.92;100318.75;5043217;27;102241;-65
2022/05/23 10:22:26;;;;;;;1.60;1.50;;;;;;;17.41;63.05;100317.63;5047066;27;102708;-65
2022/05/23 10:24:57;;;;;;;2.45;2.22;;;;;;;17.41;63.32;100325.88;5045725;27;104057;-64
2022/05/23 10:27:35;;;;;;;2.50;2.20;;;;;;;17.42;63.12;100330.25;5043073;27;102289;-64
2022/05/23 10:30:04;;;;;;;2.72;2.28;;;;;;;17.40;62.90;100316.00;5044149;27;102065;-65
2022/05/23 10:32:38;;;;;;;2.67;2.10;;;;;;;17.43;62.71;100323.63;5045210;27;102312;-65
2022/05/23 10:35:16;;;;;;;2.42;2.17;;;;;;;17.44;62.41;100325.22;5044823;27;103960;-65
2022/05/23 10:37:45;;;;;;;2.80;2.10;;;;;;;17.44;62.12;100324.41;5050781;27;102165;-64
2022/05/23 10:43:07;;;;;;;2.40;2.20;;;;;;;17.40;63.06;100307.75;5055404;27;102494;-65
2022/05/23 10:45:40;;;;;;;2.38;2.17;;;;;;;17.41;62.35;100309.34;5053269;27;103983;-64
2022/05/23 10:48:38;;;;;;;2.75;2.50;;;;;;;17.41;62.69;100309.34;5043170;27;102400;-65
2022/05/23 10:51:11;;;;;;;;;;;;;;;17.41;62.89;100303.84;5047090;27;102385;-65
2022/05/23 10:53:54;;;;;;;3.42;2.10;;;;;;;17.43;63.17;100307.09;5044621;27;102006;-64
2022/05/23 10:56:29;;;;;;;2.20;2.00;;;;;;;17.43;62.48;100312.59;5032835;27;104026;-64
2022/05/23 10:58:58;;;;;;;2.33;2.10;;;;;;;17.41;63.13;100303.84;5042438;27;102471;-65
2022/05/23 11:01:41;;;;;;;2.33;2.13;;;;;;;17.40;62.81;100310.50;5033214;27;102058;-64
2022/05/23 11:04:21;;;;;;;2.88;2.25;;;;;;;17.39;62.92;100311.66;5049038;27;102216;-64
2022/05/23 11:07:03;;;;;;;3.63;2.40;;;;;;;17.39;62.77;100311.66;5039652;27;103886;-64
2022/05/23 11:09:41;;;;;;;2.45;2.20;;;;;;;17.40;62.82;100313.25;5033807;27;102184;-64
2022/05/23 11:12:18;;;;;;;2.30;2.10;;;;;;;17.41;62.81;100309.34;5043970;27;103209;-64
2022/05/23 11:15:04;;;;;;;2.17;2.00;;;;;;;17.40;63.00;100309.69;5053944;27;102493;-64
2022/05/23 11:17:37;;;;;;;2.63;2.00;;;;;;;17.41;62.63;100317.63;5041804;27;104101;-67
2022/05/23 11:20:12;;;;;;;2.35;2.15;;;;;;;17.40;62.56;100310.50;5047413;27;102117;-65
2022/05/23 11:22:44;;;;;;;2.22;2.03;;;;;;;17.40;62.66;100316.00;5049424;27;102043;-64
2022/05/23 11:25:25;;;;;;;2.35;2.15;;;;;;;17.39;62.94;100311.66;5050498;27;102434;-65
2022/05/23 11:33:41;;;;;;;3.55;1.95;;;;;;;17.40;63.03;100318.75;5021116;27;102062;-64
2022/05/23 11:36:09;;;;;;;2.20;2.00;;;;;;;17.40;62.28;100315.19;5055036;27;102569;-64
2022/05/23 11:38:44;;;;;;;3.05;2.20;;;;;;;17.38;62.74;100307.28;5051461;27;104025;-64
2022/05/23 11:41:30;;;;;;;2.25;2.05;;;;;;;17.37;63.25;100313.09;5053595;27;102523;-64
2022/05/23 11:43:57;;;;;;;2.20;2.00;;;;;;;17.37;63.06;100302.91;5050353;27;102376;-64
2022/05/23 11:46:48;;;;;;;2.30;2.10;;;;;;;17.39;62.88;100306.16;5052568;27;102429;-65
2022/05/23 11:49:39;;;;;;;2.40;2.20;;;;;;;17.39;62.66;100294.34;5053436;27;103769;-65
2022/05/23 11:52:17;;;;;;;2.50;2.30;;;;;;;17.38;62.85;100301.78;5053982;27;101844;-63
2022/05/23 11:54:43;;;;;;;2.05;1.80;;;;;;;17.40;62.86;100299.50;5050777;27;102343;-65
2022/05/23 11:57:16;;;;;;;1.92;1.75;;;;;;;17.41;63.03;100303.84;5047241;27;103798;-64
2022/05/23 12:00:15;;;;;;;2.00;1.77;;;;;;;17.41;63.01;100298.34;5053369;27;103724;-64
2022/05/23 12:03:04;;;;;;;1.98;1.85;;;;;;;17.41;62.91;100303.84;5036613;27;102741;-64
2022/05/23 12:05:33;;;;;;;1.83;1.70;;;;;;;17.40;62.88;100318.75;5043115;27;102481;-64
2022/05/23 12:08:26;;;;;;;;;;;;;;;17.41;62.79;100308.56;5044892;27;101990;-64
2022/05/23 12:10:58;;;;;;;3.13;1.77;;;;;;;17.39;62.92;100311.66;5033166;27;103970;-64
2022/05/23 12:13:49;;;;;;;1.98;1.80;;;;;;;17.39;63.66;100305.34;5042461;27;102063;-64
2022/05/23 12:16:27;;;;;;;2.17;1.98;;;;;;;17.37;63.35;100307.59;5052595;27;102370;-65
2022/05/23 12:19:11;;;;;;;2.45;2.15;;;;;;;17.35;63.05;100310.69;5054273;27;102028;-65
2022/05/23 12:21:42;;;;;;;2.03;1.80;;;;;;;17.37;63.15;100308.41;5052927;27;103940;-65
2022/05/23 12:24:25;;;;;;;2.13;1.77;;;;;;;17.36;63.52;100308.75;5053366;27;102400;-65
2022/05/23 12:26:54;;;;;;;2.08;1.83;;;;;;;17.36;63.30;100312.31;5033144;27;101950;-64
2022/05/23 12:29:28;;;;;;;2.33;2.10;;;;;;;17.35;63.52;100327.19;5053805;27;102585;-65